createdAt,value
2022-08-25T00:00:20.633Z,99.90
2022-08-25T00:02:55.997Z,99.90
2022-08-25T00:05:33.410Z,99.90
2022-08-25T00:08:03.714Z,99.90
2022-08-25T00:11:02.953Z,99.90
2022-08-25T00:13:31.925Z,99.90
2022-08-25T00:16:01.009Z,99.90
2022-08-25T00:18:29.779Z,99.90
2022-08-25T00:20:58.337Z,99.90
2022-08-25T00:23:26.941Z,99.90
2022-08-25T00:25:56.860Z,99.90
2022-08-25T00:28:25.679Z,99.90
2022-08-25T00:30:54.296Z,99.90
2022-08-25T00:33:23.305Z,99.90
2022-08-25T00:35:52.248Z,99.90
2022-08-25T00:38:20.772Z,99.90
2022-08-25T00:41:06.137Z,99.90
2022-08-25T00:43:46.255Z,99.90
2022-08-25T00:46:16.176Z,99.90
2022-08-25T00:48:45.312Z,99.90
2022-08-25T00:51:16.781Z,99.90
2022-08-25T00:53:45.428Z,99.90
2022-08-25T00:56:14.440Z,99.90
2022-08-25T00:58:44.782Z,99.90
2022-08-25T01:01:14.025Z,99.90
2022-08-25T01:03:42.570Z,99.90
2022-08-25T01:06:12.227Z,99.90
2022-08-25T01:08:41.034Z,99.90
2022-08-25T01:11:11.317Z,99.90
2022-08-25T01:13:41.928Z,99.90
2022-08-25T01:16:12.599Z,99.90
2022-08-25T01:19:00.758Z,99.90
2022-08-25T01:21:31.694Z,99.90
2022-08-25T01:24:01.316Z,99.90
2022-08-25T01:26:31.166Z,99.90
2022-08-25T01:29:17.884Z,99.90
2022-08-25T01:31:46.702Z,99.90
2022-08-25T01:34:15.838Z,99.90
2022-08-25T01:36:46.127Z,99.90
2022-08-25T01:39:15.576Z,99.90
2022-08-25T01:41:51.501Z,99.90
2022-08-25T01:44:20.351Z,99.90
2022-08-25T01:46:48.855Z,99.90
2022-08-25T01:49:17.420Z,99.90
2022-08-25T01:51:49.241Z,99.90
2022-08-25T01:54:17.980Z,99.90
2022-08-25T01:56:46.587Z,99.90
2022-08-25T01:59:16.603Z,99.90
2022-08-25T02:01:59.979Z,99.90
2022-08-25T02:04:29.683Z,99.90
2022-08-25T02:06:59.627Z,99.90
2022-08-25T02:09:28.344Z,99.90
2022-08-25T02:11:57.058Z,99.90
2022-08-25T02:14:25.755Z,99.90
2022-08-25T02:16:55.217Z,99.90
2022-08-25T02:19:24.946Z,99.90
2022-08-25T02:21:53.428Z,99.90
2022-08-25T02:24:23.836Z,99.90
2022-08-25T02:26:52.440Z,99.90
2022-08-25T02:29:21.020Z,99.90
2022-08-25T02:31:49.661Z,99.90
2022-08-25T02:34:18.305Z,99.90
2022-08-25T02:36:46.968Z,99.90
2022-08-25T02:39:15.664Z,99.90
2022-08-25T02:41:45.760Z,99.90
2022-08-25T02:44:14.405Z,99.90
2022-08-25T02:46:43.116Z,99.90
2022-08-25T02:49:11.717Z,99.90
2022-08-25T02:51:40.334Z,99.90
2022-08-25T02:54:09.262Z,99.90
2022-08-25T02:56:38.013Z,99.90
2022-08-25T02:59:08.040Z,99.90
2022-08-25T03:01:36.665Z,99.90
2022-08-25T03:04:05.247Z,99.90
2022-08-25T03:06:34.265Z,99.90
2022-08-25T03:09:02.870Z,99.90
2022-08-25T03:11:32.045Z,99.90
2022-08-25T03:14:00.915Z,99.90
2022-08-25T03:16:49.340Z,99.90
2022-08-25T03:19:18.400Z,99.90
2022-08-25T03:21:47.144Z,99.90
2022-08-25T03:24:15.871Z,99.90
2022-08-25T03:26:56.068Z,99.90
2022-08-25T03:29:26.111Z,99.90
2022-08-25T03:31:58.422Z,99.90
2022-08-25T03:34:28.282Z,99.90
2022-08-25T03:36:57.263Z,99.90
2022-08-25T03:39:27.053Z,99.90
2022-08-25T03:41:55.683Z,99.90
2022-08-25T03:44:24.325Z,99.90
2022-08-25T03:46:53.692Z,99.90
2022-08-25T03:49:24.456Z,99.90
2022-08-25T03:51:55.118Z,99.90
2022-08-25T03:54:25.886Z,99.90
2022-08-25T03:56:54.768Z,99.90
2022-08-25T03:59:23.403Z,99.90
2022-08-25T04:01:55.225Z,99.90
2022-08-25T04:04:25.967Z,99.90
2022-08-25T04:06:54.583Z,99.90
2022-08-25T04:09:23.591Z,99.90
2022-08-25T04:11:53.133Z,99.90
2022-08-25T04:14:23.386Z,99.90
2022-08-25T04:16:53.166Z,99.90
2022-08-25T04:19:22.166Z,99.90
2022-08-25T04:21:56.640Z,99.90
2022-08-25T04:24:25.638Z,99.90
2022-08-25T04:26:54.172Z,99.90
2022-08-25T04:29:24.125Z,99.90
2022-08-25T04:31:53.041Z,99.90
2022-08-25T04:34:30.944Z,99.90
2022-08-25T04:37:03.187Z,99.90
2022-08-25T04:39:32.070Z,99.90
2022-08-25T04:42:01.183Z,99.90
2022-08-25T04:44:30.772Z,99.90
2022-08-25T04:46:59.415Z,99.90
2022-08-25T04:49:28.349Z,99.90
2022-08-25T04:51:57.841Z,99.90
2022-08-25T04:54:28.442Z,99.90
2022-08-25T04:56:58.741Z,99.90
2022-08-25T04:59:30.631Z,99.90
2022-08-25T05:02:02.763Z,99.90
2022-08-25T05:04:32.010Z,99.90
2022-08-25T05:07:00.578Z,99.90
2022-08-25T05:09:32.562Z,99.90
2022-08-25T05:12:02.203Z,99.90
2022-08-25T05:14:31.513Z,99.90
2022-08-25T05:17:00.702Z,99.90
2022-08-25T05:19:29.313Z,99.90
2022-08-25T05:21:58.334Z,99.90
2022-08-25T05:24:28.178Z,99.90
2022-08-25T05:26:58.413Z,99.90
2022-08-25T05:29:27.341Z,99.90
2022-08-25T05:31:55.986Z,99.90
2022-08-25T05:34:25.553Z,99.90
2022-08-25T05:36:54.785Z,99.90
2022-08-25T05:39:23.337Z,99.90
2022-08-25T05:41:55.494Z,99.90
2022-08-25T05:44:25.484Z,99.90
2022-08-25T05:46:54.187Z,99.90
2022-08-25T05:49:22.776Z,99.90
2022-08-25T05:51:51.491Z,99.90
2022-08-25T05:54:20.040Z,99.90
2022-08-25T05:56:48.706Z,99.90
2022-08-25T05:59:17.402Z,99.90
2022-08-25T06:02:04.469Z,99.90
2022-08-25T06:04:33.821Z,99.90
2022-08-25T06:07:02.446Z,99.90
2022-08-25T06:09:31.048Z,99.90
2022-08-25T06:11:59.639Z,99.90
2022-08-25T06:14:46.618Z,99.90
2022-08-25T06:17:17.511Z,99.90
2022-08-25T06:19:46.243Z,99.90
2022-08-25T06:22:14.729Z,99.90
2022-08-25T06:24:43.603Z,99.90
2022-08-25T06:27:12.246Z,99.90
2022-08-25T06:29:41.005Z,99.90
2022-08-25T06:32:10.544Z,99.90
2022-08-25T06:34:40.559Z,99.90
2022-08-25T06:37:09.227Z,99.90
2022-08-25T06:39:37.747Z,99.90
2022-08-25T06:42:06.630Z,99.90
2022-08-25T06:44:35.593Z,99.90
2022-08-25T06:47:04.319Z,99.70
2022-08-25T06:49:35.970Z,99.60
2022-08-25T06:52:06.544Z,99.50
2022-08-25T06:54:35.237Z,99.30
2022-08-25T06:57:03.810Z,99.20
2022-08-25T06:59:33.009Z,99.10
2022-08-25T07:02:03.261Z,98.80
2022-08-25T07:04:32.432Z,98.60
2022-08-25T07:07:00.957Z,98.40
2022-08-25T07:09:31.070Z,98.50
2022-08-25T07:11:59.824Z,98.60
2022-08-25T07:14:28.350Z,98.40
2022-08-25T07:16:57.052Z,98.10
2022-08-25T07:19:25.548Z,98.00
2022-08-25T07:21:54.563Z,97.70
2022-08-25T07:24:23.512Z,97.50
2022-08-25T07:26:54.193Z,97.40
2022-08-25T07:29:32.270Z,97.50
2022-08-25T07:32:02.500Z,97.40
2022-08-25T07:34:52.288Z,97.40
2022-08-25T07:37:38.435Z,97.50
2022-08-25T07:40:11.455Z,97.60
2022-08-25T07:42:42.163Z,97.30
2022-08-25T07:45:11.741Z,97.10
2022-08-25T07:47:40.623Z,96.90
2022-08-25T07:50:10.178Z,96.80
2022-08-25T07:52:39.175Z,96.60
2022-08-25T07:55:11.161Z,96.30
2022-08-25T07:57:42.504Z,96.10
2022-08-25T08:00:12.254Z,96.00
2022-08-25T08:02:59.939Z,96.00
2022-08-25T08:05:28.699Z,95.60
2022-08-25T08:07:58.049Z,95.60
2022-08-25T08:10:53.589Z,95.00
2022-08-25T08:13:18.702Z,94.50
2022-08-25T08:15:48.077Z,94.30
2022-08-25T08:18:17.234Z,94.00
2022-08-25T08:20:47.286Z,93.70
2022-08-25T08:23:17.324Z,93.40
2022-08-25T08:25:46.270Z,93.30
2022-08-25T08:28:14.850Z,93.40
2022-08-25T08:30:53.104Z,93.30
2022-08-25T08:33:24.524Z,93.40
2022-08-25T08:36:00.626Z,93.30
2022-08-25T08:38:34.167Z,93.30
2022-08-25T08:41:25.262Z,93.20
2022-08-25T08:43:57.320Z,93.20
2022-08-25T08:46:29.789Z,93.20
2022-08-25T08:49:26.807Z,93.20
2022-08-25T08:52:01.035Z,92.90
2022-08-25T08:54:52.874Z,92.70
2022-08-25T08:57:27.497Z,92.50
2022-08-25T08:59:58.327Z,92.20
2022-08-25T09:02:38.749Z,92.10
2022-08-25T09:05:20.939Z,92.00
2022-08-25T09:07:54.619Z,92.00
2022-08-25T09:10:25.046Z,91.80
2022-08-25T09:12:59.067Z,91.60
2022-08-25T09:15:54.816Z,91.60
2022-08-25T09:18:30.530Z,91.70
2022-08-25T09:21:10.055Z,91.70
2022-08-25T09:23:47.385Z,91.70
2022-08-25T09:26:37.522Z,91.70
2022-08-25T09:29:16.343Z,91.80
2022-08-25T09:31:46.299Z,91.90
2022-08-25T09:34:19.801Z,91.80
2022-08-25T09:37:07.036Z,91.50
2022-08-25T09:39:37.227Z,91.50
2022-08-25T09:42:06.093Z,91.60
2022-08-25T09:44:36.521Z,91.70
2022-08-25T09:47:08.497Z,91.80
2022-08-25T09:49:39.903Z,91.80
2022-08-25T09:52:35.017Z,91.80
2022-08-25T09:55:23.042Z,91.70
2022-08-25T09:57:55.320Z,91.60
2022-08-25T10:00:42.655Z,91.40
2022-08-25T10:03:15.649Z,91.00
2022-08-25T10:06:01.880Z,90.60
2022-08-25T10:08:33.985Z,90.30
2022-08-25T10:11:08.635Z,90.70
2022-08-25T10:13:43.057Z,90.00
2022-08-25T10:16:24.075Z,88.60
2022-08-25T10:19:06.923Z,87.30
2022-08-25T10:22:07.172Z,86.60
2022-08-25T10:24:36.840Z,85.80
2022-08-25T10:27:11.551Z,85.20
2022-08-25T10:29:55.139Z,85.00
2022-08-25T10:32:29.972Z,84.80
2022-08-25T10:35:18.778Z,84.50
2022-08-25T10:37:53.027Z,83.40
2022-08-25T10:40:24.400Z,81.70
2022-08-25T10:43:00.663Z,80.40
2022-08-25T10:45:44.782Z,79.60
2022-08-25T10:48:22.820Z,79.40
2022-08-25T10:50:55.142Z,79.40
2022-08-25T10:53:29.593Z,79.20
2022-08-25T10:56:03.573Z,79.30
2022-08-25T10:58:51.300Z,79.30
2022-08-25T11:01:28.839Z,79.50
2022-08-25T11:04:00.223Z,79.80
2022-08-25T11:06:36.168Z,79.90
2022-08-25T11:09:08.488Z,80.30
2022-08-25T11:11:39.199Z,80.60
2022-08-25T11:14:11.332Z,81.00
2022-08-25T11:16:41.396Z,81.10
2022-08-25T11:19:15.678Z,81.10
2022-08-25T11:21:48.909Z,81.30
2022-08-25T11:24:28.006Z,81.50
2022-08-25T11:26:57.830Z,82.20
2022-08-25T11:29:28.418Z,82.40
2022-08-25T11:32:00.198Z,82.20
2022-08-25T11:34:32.600Z,81.30
2022-08-25T11:37:11.115Z,80.10
2022-08-25T11:39:49.873Z,79.00
2022-08-25T11:42:22.491Z,77.60
2022-08-25T11:44:56.024Z,76.00
2022-08-25T11:47:42.546Z,75.30
2022-08-25T11:50:30.359Z,73.70
2022-08-25T11:53:11.382Z,72.70
2022-08-25T11:55:52.076Z,71.40
2022-08-25T11:58:40.935Z,70.50
2022-08-25T12:01:14.001Z,69.80
2022-08-25T12:03:54.979Z,69.10
2022-08-25T12:06:28.074Z,68.60
2022-08-25T12:09:14.966Z,68.00
2022-08-25T12:11:46.791Z,67.80
2022-08-25T12:14:38.787Z,67.50
2022-08-25T12:17:18.401Z,67.70
2022-08-25T12:19:55.201Z,67.70
2022-08-25T12:22:44.527Z,66.90
2022-08-25T12:25:24.714Z,66.90
2022-08-25T12:28:01.091Z,67.00
2022-08-25T12:30:36.684Z,66.10
2022-08-25T12:33:10.816Z,66.10
2022-08-25T12:35:52.936Z,65.50
2022-08-25T12:38:31.278Z,64.60
2022-08-25T12:41:03.666Z,64.30
2022-08-25T12:43:37.876Z,63.10
2022-08-25T12:46:21.432Z,62.50
2022-08-25T12:48:57.677Z,61.70
2022-08-25T12:51:28.218Z,59.70
2022-08-25T12:54:02.363Z,58.30
2022-08-25T12:56:39.111Z,58.20
2022-08-25T12:59:18.325Z,58.50
2022-08-25T13:02:24.882Z,58.30
2022-08-25T13:05:02.902Z,56.90
2022-08-25T13:07:39.576Z,56.30
2022-08-25T13:10:26.013Z,55.90
2022-08-25T13:12:59.988Z,55.20
2022-08-25T13:15:37.639Z,54.90
2022-08-25T13:18:30.413Z,53.70
2022-08-25T13:21:04.758Z,52.50
2022-08-25T13:23:53.966Z,51.50
2022-08-25T13:26:30.900Z,51.40
2022-08-25T13:29:03.532Z,51.30
2022-08-25T13:31:38.970Z,51.40
2022-08-25T13:34:34.973Z,52.10
2022-08-25T13:37:25.178Z,52.40
2022-08-25T13:40:10.249Z,52.70
2022-08-25T13:42:42.400Z,53.20
2022-08-25T13:45:32.664Z,53.40
2022-08-25T13:48:20.941Z,54.20
2022-08-25T13:50:52.784Z,54.80
2022-08-25T13:53:24.061Z,55.20
2022-08-25T13:55:54.025Z,55.60
2022-08-25T13:58:39.133Z,56.20
2022-08-25T14:01:48.605Z,56.60
2022-08-25T14:04:23.973Z,57.10
2022-08-25T14:07:08.359Z,57.30
2022-08-25T14:09:42.596Z,57.70
2022-08-25T14:12:31.850Z,57.90
2022-08-25T14:15:01.948Z,57.90
2022-08-25T14:17:39.325Z,57.80
2022-08-25T14:20:18.210Z,58.00
2022-08-25T14:22:46.878Z,57.90
2022-08-25T14:25:16.528Z,57.70
2022-08-25T14:28:06.732Z,57.70
2022-08-25T14:30:36.108Z,57.60
2022-08-25T14:33:06.872Z,57.50
2022-08-25T14:35:38.280Z,57.50
2022-08-25T14:38:10.419Z,57.70
2022-08-25T14:40:39.723Z,57.60
2022-08-25T14:43:16.648Z,57.70
2022-08-25T14:45:46.615Z,57.90
2022-08-25T14:48:21.097Z,58.10
2022-08-25T14:50:52.227Z,58.10
2022-08-25T14:53:20.998Z,58.20
2022-08-25T14:55:54.007Z,58.30
2022-08-25T14:58:48.579Z,58.60
2022-08-25T15:01:28.545Z,58.70
2022-08-25T15:04:18.071Z,58.90
2022-08-25T15:06:51.130Z,59.10
2022-08-25T15:09:21.378Z,59.20
2022-08-25T15:11:51.905Z,59.40
2022-08-25T15:14:28.580Z,59.40
2022-08-25T15:17:02.934Z,59.60
2022-08-25T15:19:31.965Z,59.70
2022-08-25T15:22:01.902Z,59.80
2022-08-25T15:24:32.203Z,60.00
2022-08-25T15:27:05.825Z,60.20
2022-08-25T15:29:39.233Z,60.60
2022-08-25T15:32:09.338Z,60.90
2022-08-25T15:34:38.823Z,60.90
2022-08-25T15:37:10.157Z,61.00
2022-08-25T15:39:38.959Z,61.10
2022-08-25T15:42:09.676Z,61.50
2022-08-25T15:44:40.516Z,62.10
2022-08-25T15:47:12.616Z,62.80
2022-08-25T15:49:41.843Z,63.10
2022-08-25T15:52:14.911Z,63.70
2022-08-25T15:54:43.726Z,64.00
2022-08-25T15:57:16.860Z,64.40
2022-08-25T15:59:53.844Z,64.70
2022-08-25T16:02:22.643Z,65.20
2022-08-25T16:04:51.713Z,65.50
2022-08-25T16:07:21.743Z,65.90
2022-08-25T16:09:51.675Z,66.30
2022-08-25T16:12:21.354Z,66.60
2022-08-25T16:14:49.996Z,66.80
2022-08-25T16:17:40.666Z,67.10
2022-08-25T16:20:13.692Z,67.50
2022-08-25T16:22:45.605Z,67.70
2022-08-25T16:25:15.049Z,67.90
2022-08-25T16:27:46.860Z,68.10
2022-08-25T16:30:17.533Z,68.40
2022-08-25T16:32:46.857Z,68.70
2022-08-25T16:35:16.532Z,68.90
2022-08-25T16:37:46.881Z,68.90
2022-08-25T16:40:19.096Z,69.10
2022-08-25T16:42:48.747Z,69.30
2022-08-25T16:45:18.567Z,69.70
2022-08-25T16:47:47.331Z,69.90
2022-08-25T16:50:17.006Z,70.20
2022-08-25T16:53:07.961Z,70.40
2022-08-25T16:55:38.983Z,70.60
2022-08-25T16:58:36.150Z,70.80
2022-08-25T17:01:06.187Z,71.10
2022-08-25T17:03:44.143Z,71.40
2022-08-25T17:06:16.285Z,71.60
2022-08-25T17:08:49.708Z,71.80
2022-08-25T17:11:19.670Z,72.10
2022-08-25T17:13:50.035Z,72.40
2022-08-25T17:16:20.242Z,72.50
2022-08-25T17:18:49.749Z,72.70
2022-08-25T17:21:24.498Z,73.10
2022-08-25T17:23:55.843Z,73.40
2022-08-25T17:26:49.961Z,74.20
2022-08-25T17:29:19.405Z,74.10
2022-08-25T17:31:48.685Z,74.40
2022-08-25T17:34:21.354Z,74.60
2022-08-25T17:36:52.135Z,75.20
2022-08-25T17:39:23.606Z,75.40
2022-08-25T17:41:52.445Z,75.80
2022-08-25T17:44:21.077Z,76.10
2022-08-25T17:46:50.264Z,76.40
2022-08-25T17:49:20.502Z,76.70
2022-08-25T17:51:49.151Z,77.10
2022-08-25T17:54:18.200Z,77.50
2022-08-25T17:56:48.374Z,78.00
2022-08-25T17:59:19.119Z,78.30
2022-08-25T18:01:49.674Z,78.70
2022-08-25T18:04:24.063Z,79.00
2022-08-25T18:07:07.096Z,79.30
2022-08-25T18:09:35.867Z,79.50
2022-08-25T18:12:06.064Z,79.80
2022-08-25T18:14:34.914Z,80.20
2022-08-25T18:17:03.971Z,80.40
2022-08-25T18:19:33.529Z,80.80
2022-08-25T18:22:06.199Z,81.10
2022-08-25T18:24:36.172Z,81.30
2022-08-25T18:27:06.512Z,81.60
2022-08-25T18:29:35.268Z,81.80
2022-08-25T18:32:04.759Z,82.00
2022-08-25T18:34:35.469Z,82.10
2022-08-25T18:37:24.489Z,82.30
2022-08-25T18:40:23.935Z,82.50
2022-08-25T18:42:55.318Z,82.70
2022-08-25T18:45:44.063Z,83.00
2022-08-25T18:48:12.869Z,83.40
2022-08-25T18:51:02.355Z,84.00
2022-08-25T18:53:37.122Z,84.50
2022-08-25T18:56:18.351Z,85.00
2022-08-25T18:59:02.484Z,85.60
2022-08-25T19:01:31.613Z,86.10
2022-08-25T19:04:00.268Z,86.60
2022-08-25T19:06:32.566Z,87.20
2022-08-25T19:09:01.206Z,87.70
2022-08-25T19:11:29.976Z,88.10
2022-08-25T19:14:00.856Z,88.50
2022-08-25T19:16:36.394Z,88.90
2022-08-25T19:19:06.633Z,89.30
2022-08-25T19:21:35.332Z,89.70
2022-08-25T19:24:04.218Z,90.00
2022-08-25T19:26:36.094Z,90.10
2022-08-25T19:29:09.062Z,90.30
2022-08-25T19:31:39.341Z,90.40
2022-08-25T19:34:09.110Z,90.60
2022-08-25T19:36:40.057Z,90.70
2022-08-25T19:39:10.401Z,90.80
2022-08-25T19:41:39.408Z,90.90
2022-08-25T19:44:12.471Z,91.00
2022-08-25T19:46:43.489Z,91.10
2022-08-25T19:49:14.694Z,91.20
2022-08-25T19:51:45.245Z,91.30
2022-08-25T19:54:14.931Z,91.50
2022-08-25T19:56:54.862Z,91.60
2022-08-25T19:59:40.783Z,91.80
2022-08-25T20:02:15.431Z,91.90
2022-08-25T20:04:49.291Z,91.90
2022-08-25T20:07:19.939Z,92.00
2022-08-25T20:09:49.189Z,92.10
2022-08-25T20:12:20.482Z,92.30
2022-08-25T20:14:51.569Z,92.30
2022-08-25T20:17:23.615Z,92.30
2022-08-25T20:19:53.780Z,92.40
2022-08-25T20:22:26.305Z,92.40
2022-08-25T20:24:56.108Z,92.50
2022-08-25T20:27:28.300Z,92.50
2022-08-25T20:29:58.514Z,92.60
2022-08-25T20:32:27.089Z,92.60
2022-08-25T20:34:57.894Z,92.60
2022-08-25T20:37:26.750Z,92.70
2022-08-25T20:39:55.796Z,92.80
2022-08-25T20:42:24.352Z,92.90
2022-08-25T20:44:53.902Z,93.10
2022-08-25T20:47:23.944Z,93.30
2022-08-25T20:49:52.577Z,93.40
2022-08-25T20:52:21.313Z,93.60
2022-08-25T20:54:51.255Z,93.90
2022-08-25T20:57:25.512Z,94.10
2022-08-25T20:59:55.170Z,94.30
2022-08-25T21:02:25.715Z,94.60
2022-08-25T21:04:54.775Z,94.70
2022-08-25T21:07:26.404Z,94.90
2022-08-25T21:09:58.325Z,95.10
2022-08-25T21:12:27.204Z,95.30
2022-08-25T21:14:55.958Z,95.40
2022-08-25T21:17:27.417Z,95.70
2022-08-25T21:19:58.696Z,96.00
2022-08-25T21:22:27.863Z,96.20
2022-08-25T21:24:56.887Z,96.30
2022-08-25T21:27:25.609Z,96.40
2022-08-25T21:29:54.929Z,96.60
2022-08-25T21:32:24.741Z,96.70
2022-08-25T21:34:56.175Z,96.90
2022-08-25T21:37:26.745Z,97.00
2022-08-25T21:39:55.731Z,97.00
2022-08-25T21:42:25.019Z,97.10
2022-08-25T21:44:53.971Z,97.10
2022-08-25T21:47:23.279Z,97.20
2022-08-25T21:49:52.189Z,97.20
2022-08-25T21:52:22.212Z,97.20
2022-08-25T21:55:15.797Z,97.30
2022-08-25T21:57:44.854Z,97.30
2022-08-25T22:00:14.176Z,97.40
2022-08-25T22:02:46.125Z,97.20
2022-08-25T22:05:15.436Z,97.20
2022-08-25T22:07:46.523Z,97.20
2022-08-25T22:10:17.964Z,97.20
2022-08-25T22:12:47.502Z,97.20
2022-08-25T22:15:17.873Z,97.20
2022-08-25T22:17:48.029Z,97.30
2022-08-25T22:20:17.889Z,97.40
2022-08-25T22:22:47.926Z,97.50
2022-08-25T22:25:16.645Z,97.40
2022-08-25T22:27:45.357Z,97.30
2022-08-25T22:30:15.232Z,97.30
2022-08-25T22:32:45.465Z,97.40
2022-08-25T22:35:14.769Z,97.50
2022-08-25T22:37:44.352Z,97.50
2022-08-25T22:40:15.165Z,97.70
2022-08-25T22:42:48.161Z,97.80
2022-08-25T22:45:17.004Z,98.00
2022-08-25T22:47:45.642Z,98.10
2022-08-25T22:50:14.772Z,98.20
2022-08-25T22:52:46.041Z,98.30
2022-08-25T22:55:16.426Z,98.50
2022-08-25T22:57:45.595Z,98.50
2022-08-25T23:00:15.733Z,98.60
2022-08-25T23:02:45.082Z,98.60
2022-08-25T23:05:15.126Z,98.70
2022-08-25T23:07:43.749Z,99.10
2022-08-25T23:10:13.339Z,98.80
2022-08-25T23:12:43.970Z,98.80
2022-08-25T23:15:13.191Z,98.80
2022-08-25T23:17:43.206Z,98.80
2022-08-25T23:20:25.904Z,98.80
2022-08-25T23:22:55.023Z,98.90
2022-08-25T23:25:25.863Z,99.00
2022-08-25T23:27:56.932Z,99.00
2022-08-25T23:30:27.299Z,99.10
2022-08-25T23:32:57.193Z,99.10
2022-08-25T23:35:26.371Z,99.20
2022-08-25T23:37:55.179Z,99.30
2022-08-25T23:40:28.228Z,99.30
2022-08-25T23:42:58.734Z,99.30
2022-08-25T23:45:27.455Z,99.30
2022-08-25T23:47:56.077Z,99.50
2022-08-25T23:50:24.731Z,99.60
2022-08-25T23:52:53.509Z,99.70
2022-08-25T23:55:22.247Z,99.80
2022-08-25T23:57:51.573Z,99.70
